createdAt,value
2023-03-06T00:00:46.745Z,9.73
2023-03-06T00:03:13.243Z,9.77
2023-03-06T00:05:39.953Z,10.73
2023-03-06T00:08:06.601Z,10.23
2023-03-06T00:10:33.568Z,10.60
2023-03-06T00:13:02.634Z,11.67
2023-03-06T00:15:29.620Z,12.00
2023-03-06T00:17:56.364Z,10.90
2023-03-06T00:20:23.406Z,11.53
2023-03-06T00:22:50.117Z,11.23
2023-03-06T00:25:19.272Z,11.40
2023-03-06T00:27:45.852Z,12.10
2023-03-06T00:30:16.401Z,13.07
2023-03-06T00:32:43.376Z,12.13
2023-03-06T00:35:10.726Z,11.47
2023-03-06T00:37:37.082Z,11.40
2023-03-06T00:40:08.416Z,13.00
2023-03-06T00:42:34.846Z,10.83
2023-03-06T00:45:01.305Z,12.30
2023-03-06T00:47:27.765Z,12.40
2023-03-06T00:49:54.130Z,13.30
2023-03-06T00:52:20.587Z,12.20
2023-03-06T00:54:46.972Z,12.70
2023-03-06T00:57:13.367Z,12.77
2023-03-06T00:59:39.714Z,12.10
2023-03-06T01:02:06.639Z,11.70
2023-03-06T01:04:33.071Z,11.60
2023-03-06T01:06:59.542Z,11.40
2023-03-06T01:09:26.126Z,12.80
2023-03-06T01:11:52.448Z,13.50
2023-03-06T01:14:21.801Z,13.70
2023-03-06T01:16:48.927Z,12.83
2023-03-06T01:19:15.321Z,12.20
2023-03-06T01:21:41.730Z,12.40
2023-03-06T01:24:08.356Z,12.70
2023-03-06T01:26:34.889Z,12.20
2023-03-06T01:29:01.617Z,15.00
2023-03-06T01:31:28.385Z,13.00
2023-03-06T01:33:54.937Z,12.30
2023-03-06T01:36:21.332Z,12.10
2023-03-06T01:38:47.725Z,12.40
2023-03-06T01:41:17.184Z,14.53
2023-03-06T01:43:46.177Z,12.93
2023-03-06T01:46:21.692Z,12.70
2023-03-06T01:48:50.230Z,13.03
2023-03-06T01:51:16.972Z,14.70
2023-03-06T01:53:43.862Z,12.83
2023-03-06T01:56:13.222Z,12.80
2023-03-06T01:58:43.517Z,12.17
2023-03-06T02:01:12.910Z,12.17
2023-03-06T02:03:41.313Z,12.20
2023-03-06T02:06:08.801Z,11.30
2023-03-06T02:08:35.472Z,12.30
2023-03-06T02:11:09.427Z,11.40
2023-03-06T02:13:37.055Z,12.57
2023-03-06T02:16:03.729Z,12.37
2023-03-06T02:18:31.918Z,12.23
2023-03-06T02:21:02.450Z,12.60
2023-03-06T02:23:48.834Z,12.70
2023-03-06T02:26:16.163Z,11.57
2023-03-06T02:28:42.636Z,12.53
2023-03-06T02:31:21.990Z,11.70
2023-03-06T02:34:01.146Z,12.60
2023-03-06T02:36:28.682Z,10.50
2023-03-06T02:38:55.243Z,11.97
2023-03-06T02:41:21.742Z,12.57
2023-03-06T02:43:51.166Z,10.77
2023-03-06T02:46:17.760Z,11.70
2023-03-06T02:48:44.420Z,11.13
2023-03-06T02:51:10.806Z,11.40
2023-03-06T02:53:37.130Z,12.47
2023-03-06T02:56:03.550Z,11.57
2023-03-06T02:58:29.899Z,11.20
2023-03-06T03:00:56.276Z,12.50
2023-03-06T03:03:22.726Z,13.33
2023-03-06T03:05:49.109Z,10.70
2023-03-06T03:08:15.884Z,11.50
2023-03-06T03:10:42.285Z,11.53
2023-03-06T03:13:08.699Z,11.37
2023-03-06T03:15:35.140Z,12.40
2023-03-06T03:18:01.544Z,11.97
2023-03-06T03:20:27.865Z,11.07
2023-03-06T03:22:55.341Z,10.47
2023-03-06T03:25:23.766Z,11.10
2023-03-06T03:27:50.211Z,10.90
2023-03-06T03:30:17.289Z,11.73
2023-03-06T03:32:43.649Z,13.27
2023-03-06T03:35:11.081Z,12.13
2023-03-06T03:37:38.011Z,10.70
2023-03-06T03:40:06.538Z,11.60
2023-03-06T03:42:32.925Z,11.23
2023-03-06T03:45:00.887Z,11.13
2023-03-06T03:47:27.265Z,11.37
2023-03-06T03:49:53.632Z,11.50
2023-03-06T03:52:20.006Z,12.00
2023-03-06T03:54:46.388Z,11.30
2023-03-06T03:57:12.752Z,12.57
2023-03-06T03:59:39.115Z,11.43
2023-03-06T04:02:05.580Z,11.27
2023-03-06T04:04:31.992Z,11.07
2023-03-06T04:06:58.408Z,12.33
2023-03-06T04:09:24.799Z,12.23
2023-03-06T04:11:51.174Z,11.90
2023-03-06T04:14:17.652Z,11.33
2023-03-06T04:16:44.104Z,11.47
2023-03-06T04:19:11.553Z,12.40
2023-03-06T04:21:37.962Z,11.40
2023-03-06T04:24:04.737Z,12.50
2023-03-06T04:26:31.093Z,12.80
2023-03-06T04:28:58.425Z,12.17
2023-03-06T04:31:24.915Z,12.27
2023-03-06T04:33:51.312Z,13.03
2023-03-06T04:36:29.206Z,12.77
2023-03-06T04:38:56.124Z,11.63
2023-03-06T04:41:23.318Z,12.90
2023-03-06T04:43:50.337Z,12.20
2023-03-06T04:46:17.213Z,12.43
2023-03-06T04:48:45.233Z,12.67
2023-03-06T04:51:13.384Z,12.30
2023-03-06T04:53:39.949Z,13.57
2023-03-06T04:56:06.973Z,12.13
2023-03-06T04:58:33.476Z,13.57
2023-03-06T05:00:59.836Z,12.70
2023-03-06T05:03:26.301Z,13.50
2023-03-06T05:05:52.685Z,13.27
2023-03-06T05:08:19.128Z,12.00
2023-03-06T05:10:46.196Z,12.93
2023-03-06T05:13:12.732Z,12.83
2023-03-06T05:15:42.041Z,12.80
2023-03-06T05:18:08.537Z,12.23
2023-03-06T05:20:34.997Z,12.30
2023-03-06T05:23:01.681Z,12.53
2023-03-06T05:25:28.017Z,13.20
2023-03-06T05:27:54.346Z,12.63
2023-03-06T05:30:23.015Z,12.20
2023-03-06T05:32:49.664Z,13.50
2023-03-06T05:35:18.783Z,13.93
2023-03-06T05:37:45.909Z,14.10
2023-03-06T05:40:13.167Z,13.60
2023-03-06T05:42:39.611Z,13.07
2023-03-06T05:45:06.529Z,12.90
2023-03-06T05:47:33.253Z,13.10
2023-03-06T05:49:59.886Z,12.70
2023-03-06T05:52:26.233Z,13.50
2023-03-06T05:54:54.384Z,13.00
2023-03-06T05:57:22.730Z,13.13
2023-03-06T05:59:50.250Z,13.27
2023-03-06T06:02:17.754Z,14.10
2023-03-06T06:04:45.437Z,12.83
2023-03-06T06:07:15.877Z,13.20
2023-03-06T06:09:45.213Z,14.40
2023-03-06T06:12:12.146Z,14.93
2023-03-06T06:14:38.493Z,15.83
2023-03-06T06:17:05.313Z,16.50
2023-03-06T06:19:31.753Z,14.40
2023-03-06T06:21:58.522Z,15.97
2023-03-06T06:24:26.225Z,16.17
2023-03-06T06:26:54.749Z,15.70
2023-03-06T06:29:22.051Z,14.70
2023-03-06T06:31:48.816Z,15.03
2023-03-06T06:34:15.289Z,14.57
2023-03-06T06:36:41.844Z,15.50
2023-03-06T06:39:09.069Z,15.03
2023-03-06T06:41:54.868Z,15.23
2023-03-06T06:44:21.961Z,14.90
2023-03-06T06:49:36.438Z,16.13
2023-03-06T06:52:03.029Z,13.87
2023-03-06T06:54:29.480Z,14.10
2023-03-06T06:56:55.813Z,16.27
2023-03-06T06:59:23.558Z,15.93
2023-03-06T07:01:52.967Z,14.67
2023-03-06T07:04:20.020Z,16.20
2023-03-06T07:06:46.737Z,15.87
2023-03-06T07:09:13.754Z,16.20
2023-03-06T07:11:40.964Z,17.20
2023-03-06T07:14:07.309Z,16.80
2023-03-06T07:16:34.125Z,15.93
2023-03-06T07:19:00.574Z,18.77
2023-03-06T07:21:26.968Z,15.20
2023-03-06T07:23:54.219Z,16.30
2023-03-06T07:26:20.563Z,17.90
2023-03-06T07:28:52.771Z,17.23
2023-03-06T07:31:25.623Z,17.70
2023-03-06T07:33:53.855Z,17.43
2023-03-06T07:36:21.196Z,18.30
2023-03-06T07:38:47.624Z,18.30
2023-03-06T07:41:16.216Z,17.20
2023-03-06T07:43:44.223Z,17.00
2023-03-06T07:46:12.642Z,16.90
2023-03-06T07:48:40.088Z,17.17
2023-03-06T07:51:12.026Z,15.90
2023-03-06T07:53:38.368Z,16.30
2023-03-06T07:56:08.742Z,15.90
2023-03-06T07:58:36.724Z,16.03
2023-03-06T08:01:05.018Z,16.10
2023-03-06T08:03:31.437Z,14.47
2023-03-06T08:06:11.654Z,15.90
2023-03-06T08:08:40.261Z,15.63
2023-03-06T08:11:07.942Z,16.30
2023-03-06T08:13:34.796Z,15.67
2023-03-06T08:16:01.329Z,15.70
2023-03-06T08:18:27.966Z,15.50
2023-03-06T08:21:15.899Z,14.17
2023-03-06T08:23:43.366Z,14.93
2023-03-06T08:26:15.456Z,14.60
2023-03-06T08:28:42.711Z,15.50
2023-03-06T08:31:12.919Z,14.73
2023-03-06T08:33:40.395Z,17.20
2023-03-06T08:36:07.244Z,14.60
2023-03-06T08:38:33.569Z,14.77
2023-03-06T08:40:59.872Z,16.17
2023-03-06T08:43:26.248Z,16.07
2023-03-06T08:45:53.822Z,15.27
2023-03-06T08:48:20.427Z,15.10
2023-03-06T08:50:47.993Z,15.30
2023-03-06T08:53:14.510Z,14.90
2023-03-06T08:55:40.933Z,15.83
2023-03-06T08:58:07.292Z,17.07
2023-03-06T09:00:33.700Z,15.60
2023-03-06T09:03:00.199Z,15.57
2023-03-06T09:05:26.592Z,16.03
2023-03-06T09:07:53.244Z,15.97
2023-03-06T09:10:22.793Z,16.07
2023-03-06T09:12:52.477Z,15.63
2023-03-06T09:15:21.881Z,15.60
2023-03-06T09:17:48.294Z,14.70
2023-03-06T09:20:15.191Z,14.70
2023-03-06T09:22:45.557Z,17.47
2023-03-06T09:25:20.132Z,16.80
2023-03-06T09:27:53.425Z,16.93
2023-03-06T09:30:28.386Z,17.10
2023-03-06T09:32:54.727Z,16.40
2023-03-06T09:35:21.081Z,17.13
2023-03-06T09:37:48.711Z,16.00
2023-03-06T09:41:04.796Z,16.77
2023-03-06T09:43:42.537Z,20.87
2023-03-06T09:46:36.284Z,15.07
2023-03-06T09:49:16.089Z,15.63
2023-03-06T09:52:14.876Z,16.63
2023-03-06T09:54:56.894Z,14.60
2023-03-06T09:57:30.649Z,13.90
2023-03-06T10:00:04.573Z,13.93
2023-03-06T10:02:53.411Z,14.47
2023-03-06T10:05:25.993Z,13.87
2023-03-06T10:08:03.359Z,12.97
2023-03-06T10:10:44.869Z,14.33
2023-03-06T10:13:40.983Z,13.70
2023-03-06T10:16:15.483Z,16.17
2023-03-06T10:18:41.938Z,14.73
2023-03-06T10:21:29.847Z,13.90
2023-03-06T10:24:18.101Z,14.50
2023-03-06T10:27:26.682Z,14.43
2023-03-06T10:30:11.198Z,13.30
2023-03-06T10:33:00.526Z,13.53
2023-03-06T10:35:48.131Z,13.80
2023-03-06T10:38:24.829Z,13.80
2023-03-06T10:41:13.165Z,13.20
2023-03-06T10:43:44.692Z,12.70
2023-03-06T10:46:27.329Z,13.00
2023-03-06T10:48:59.328Z,13.00
2023-03-06T10:51:27.005Z,11.57
2023-03-06T10:53:55.108Z,13.03
2023-03-06T10:56:32.082Z,12.23
2023-03-06T10:59:07.472Z,11.17
2023-03-06T11:01:34.400Z,14.07
2023-03-06T11:04:28.836Z,11.87
2023-03-06T11:07:16.183Z,12.90
2023-03-06T11:10:19.357Z,11.20
2023-03-06T11:12:59.546Z,13.20
2023-03-06T11:15:28.174Z,12.67
2023-03-06T11:18:05.100Z,12.00
2023-03-06T11:20:48.544Z,11.27
2023-03-06T11:23:21.778Z,10.30
2023-03-06T11:25:50.336Z,11.13
2023-03-06T11:28:31.576Z,12.00
2023-03-06T11:31:08.487Z,11.87
2023-03-06T11:33:54.092Z,12.00
2023-03-06T11:36:41.324Z,10.37
2023-03-06T11:39:34.144Z,11.00
2023-03-06T11:42:12.493Z,10.33
2023-03-06T11:45:11.141Z,11.23
2023-03-06T11:47:54.196Z,11.80
2023-03-06T11:50:37.426Z,10.27
2023-03-06T11:53:06.484Z,11.87
2023-03-06T11:55:51.259Z,10.60
2023-03-06T11:58:36.115Z,11.50
2023-03-06T12:01:24.176Z,12.10
2023-03-06T12:04:00.812Z,10.67
2023-03-06T12:06:34.898Z,11.43
2023-03-06T12:09:14.108Z,12.00
2023-03-06T12:12:10.264Z,11.23
2023-03-06T12:14:59.940Z,12.90
2023-03-06T12:18:00.356Z,11.70
2023-03-06T12:20:53.291Z,13.07
2023-03-06T12:23:25.451Z,10.67
2023-03-06T12:26:16.699Z,10.40
2023-03-06T12:28:50.276Z,11.13
2023-03-06T12:31:35.961Z,10.87
2023-03-06T12:34:29.954Z,9.03
2023-03-06T12:37:15.377Z,8.33
2023-03-06T12:39:50.818Z,10.13
2023-03-06T12:42:51.237Z,10.20
2023-03-06T12:45:37.943Z,11.70
2023-03-06T12:48:25.666Z,9.60
2023-03-06T12:50:52.554Z,9.43
2023-03-06T12:53:27.486Z,9.57
2023-03-06T12:55:54.695Z,8.70
2023-03-06T12:58:30.137Z,9.73
2023-03-06T13:01:36.566Z,8.83
2023-03-06T13:04:24.987Z,9.90
2023-03-06T13:07:22.745Z,9.97
2023-03-06T13:10:05.564Z,8.93
2023-03-06T13:12:43.777Z,11.20
2023-03-06T13:15:33.610Z,9.03
2023-03-06T13:18:00.503Z,9.07
2023-03-06T13:20:34.929Z,8.10
2023-03-06T13:23:29.406Z,8.30
2023-03-06T13:26:01.859Z,8.67
2023-03-06T13:28:45.016Z,9.47
2023-03-06T13:31:26.343Z,9.00
2023-03-06T13:33:56.584Z,8.73
2023-03-06T13:36:39.601Z,7.50
2023-03-06T13:39:10.765Z,8.97
2023-03-06T13:41:52.547Z,6.67
2023-03-06T13:44:24.862Z,8.87
2023-03-06T13:47:20.299Z,8.00
2023-03-06T13:49:48.227Z,7.90
2023-03-06T13:52:31.484Z,7.70
2023-03-06T13:55:27.457Z,6.50
2023-03-06T13:58:12.551Z,6.90
2023-03-06T14:00:54.107Z,6.63
2023-03-06T14:03:26.372Z,7.40
2023-03-06T14:05:52.902Z,7.80
2023-03-06T14:08:24.496Z,7.27
2023-03-06T14:11:19.400Z,8.60
2023-03-06T14:13:52.648Z,8.40
2023-03-06T14:16:25.226Z,8.30
2023-03-06T14:18:55.004Z,7.87
2023-03-06T14:21:47.653Z,6.50
2023-03-06T14:24:19.887Z,7.50
2023-03-06T14:26:49.584Z,7.87
2023-03-06T14:29:27.360Z,8.03
2023-03-06T14:31:56.510Z,7.27
2023-03-06T14:34:28.708Z,7.23
2023-03-06T14:36:59.785Z,7.57
2023-03-06T14:39:40.071Z,6.90
2023-03-06T14:42:24.685Z,7.17
2023-03-06T14:45:21.140Z,7.27
2023-03-06T14:47:52.333Z,7.40
2023-03-06T14:50:23.165Z,7.43
2023-03-06T14:53:04.228Z,6.77
2023-03-06T14:55:33.220Z,7.33
2023-03-06T14:58:05.359Z,8.30
2023-03-06T15:00:41.297Z,7.23
2023-03-06T15:03:16.340Z,6.83
2023-03-06T15:05:45.276Z,7.27
2023-03-06T15:08:17.632Z,6.73
2023-03-06T15:10:58.686Z,8.27
2023-03-06T15:13:27.520Z,6.80
2023-03-06T15:16:30.676Z,7.70
2023-03-06T15:19:04.028Z,6.50
2023-03-06T15:21:36.837Z,7.43
2023-03-06T15:24:34.102Z,8.13
2023-03-06T15:27:04.026Z,7.43
2023-03-06T15:29:31.033Z,7.53
2023-03-06T15:32:34.541Z,8.97
2023-03-06T15:35:26.572Z,7.83
2023-03-06T15:37:53.291Z,7.90
2023-03-06T15:40:22.173Z,8.50
2023-03-06T15:42:51.571Z,8.57
2023-03-06T15:45:23.339Z,8.97
2023-03-06T15:47:52.451Z,7.80
2023-03-06T15:50:25.167Z,9.37
2023-03-06T15:52:52.104Z,8.23
2023-03-06T15:55:22.313Z,8.90
2023-03-06T15:57:55.303Z,8.37
2023-03-06T16:00:28.326Z,8.43
2023-03-06T16:02:56.571Z,8.93
2023-03-06T16:05:23.804Z,8.50
2023-03-06T16:07:50.681Z,8.70
2023-03-06T16:10:20.393Z,9.40
2023-03-06T16:12:53.889Z,9.20
2023-03-06T16:15:22.987Z,8.50
2023-03-06T16:17:49.429Z,9.73
2023-03-06T16:20:18.193Z,8.60
2023-03-06T16:22:49.652Z,9.10
2023-03-06T16:25:17.805Z,9.20
2023-03-06T16:27:50.530Z,9.97
2023-03-06T16:30:18.847Z,9.37
2023-03-06T16:32:45.923Z,8.73
2023-03-06T16:35:13.002Z,8.73
2023-03-06T16:37:40.290Z,9.23
2023-03-06T16:40:28.906Z,9.10
2023-03-06T16:42:55.782Z,8.00
2023-03-06T16:45:23.162Z,8.73
2023-03-06T16:47:49.561Z,8.83
2023-03-06T16:50:26.022Z,8.73
2023-03-06T16:52:54.380Z,8.70
2023-03-06T16:55:21.064Z,9.20
2023-03-06T16:57:47.733Z,8.60
2023-03-06T17:00:15.769Z,9.33
2023-03-06T17:02:47.553Z,8.27
2023-03-06T17:05:14.684Z,9.83
2023-03-06T17:07:41.220Z,8.80
2023-03-06T17:10:10.970Z,8.70
2023-03-06T17:12:37.305Z,8.70
2023-03-06T17:15:05.536Z,8.43
2023-03-06T17:17:32.347Z,9.93
2023-03-06T17:19:58.942Z,8.60
2023-03-06T17:22:27.290Z,8.10
2023-03-06T17:24:54.276Z,9.50
2023-03-06T17:27:22.133Z,10.03
2023-03-06T17:29:48.556Z,9.50
2023-03-06T17:32:15.096Z,8.90
2023-03-06T17:34:41.630Z,8.50
2023-03-06T17:37:08.039Z,9.30
2023-03-06T17:39:36.814Z,9.20
2023-03-06T17:42:04.601Z,9.30
2023-03-06T17:44:32.484Z,10.30
2023-03-06T17:46:59.216Z,9.10
2023-03-06T17:49:25.606Z,9.63
2023-03-06T17:51:52.424Z,8.33
2023-03-06T17:54:19.550Z,15.17
2023-03-06T17:56:46.216Z,11.13
2023-03-06T17:59:12.601Z,14.83
2023-03-06T18:01:38.948Z,10.57
2023-03-06T18:04:05.510Z,9.50
2023-03-06T18:06:33.441Z,10.03
2023-03-06T18:09:00.639Z,9.50
2023-03-06T18:11:27.917Z,8.93
2023-03-06T18:13:54.356Z,9.80
2023-03-06T18:16:23.624Z,9.53
2023-03-06T18:18:54.755Z,8.63
2023-03-06T18:21:24.656Z,10.30
2023-03-06T18:23:51.199Z,9.60
2023-03-06T18:26:21.757Z,9.63
2023-03-06T18:28:52.131Z,9.60
2023-03-06T18:31:24.217Z,11.27
2023-03-06T18:33:52.634Z,8.50
2023-03-06T18:36:20.897Z,9.63
2023-03-06T18:38:47.926Z,9.87
2023-03-06T18:41:14.466Z,9.87
2023-03-06T18:43:40.836Z,10.23
2023-03-06T18:46:07.606Z,13.37
2023-03-06T18:48:34.056Z,9.40
2023-03-06T18:51:09.176Z,11.33
2023-03-06T18:53:36.203Z,9.90
2023-03-06T18:56:03.374Z,9.07
2023-03-06T18:58:29.777Z,11.50
2023-03-06T19:00:58.334Z,10.63
2023-03-06T19:03:25.630Z,9.50
2023-03-06T19:05:52.141Z,9.70
2023-03-06T19:08:18.849Z,10.57
2023-03-06T19:10:47.214Z,9.47
2023-03-06T19:13:13.862Z,9.80
2023-03-06T19:15:48.208Z,10.20
2023-03-06T19:18:16.930Z,10.27
2023-03-06T19:20:44.647Z,9.20
2023-03-06T19:23:11.315Z,10.00
2023-03-06T19:25:37.741Z,11.20
2023-03-06T19:28:04.395Z,10.17
2023-03-06T19:30:30.866Z,10.30
2023-03-06T19:32:57.350Z,10.80
2023-03-06T19:35:24.864Z,10.53
2023-03-06T19:37:51.841Z,11.07
2023-03-06T19:40:18.709Z,10.57
2023-03-06T19:42:45.307Z,10.50
2023-03-06T19:45:11.964Z,10.00
2023-03-06T19:47:38.399Z,10.97
2023-03-06T19:50:05.049Z,11.50
2023-03-06T19:52:31.424Z,10.60
2023-03-06T19:54:57.738Z,10.17
2023-03-06T19:57:24.078Z,11.40
2023-03-06T19:59:51.274Z,10.83
2023-03-06T20:02:19.516Z,10.57
2023-03-06T20:04:46.695Z,10.33
2023-03-06T20:07:13.063Z,10.37
2023-03-06T20:09:39.414Z,10.27
2023-03-06T20:12:08.215Z,10.87
2023-03-06T20:14:34.752Z,12.23
2023-03-06T20:17:01.068Z,11.50
2023-03-06T20:19:27.579Z,10.83
2023-03-06T20:21:53.993Z,11.57
2023-03-06T20:24:20.406Z,10.93
2023-03-06T20:26:48.816Z,11.40
2023-03-06T20:29:15.151Z,14.03
2023-03-06T20:31:41.718Z,13.00
2023-03-06T20:34:08.101Z,11.03
2023-03-06T20:36:37.065Z,11.63
2023-03-06T20:39:05.938Z,11.90
2023-03-06T20:41:32.923Z,11.30
2023-03-06T20:44:00.817Z,11.20
2023-03-06T20:46:27.483Z,11.67
2023-03-06T20:48:54.774Z,12.23
2023-03-06T20:51:30.102Z,11.50
2023-03-06T20:53:56.517Z,11.80
2023-03-06T20:56:25.856Z,11.40
2023-03-06T20:58:52.921Z,11.47
2023-03-06T21:01:24.134Z,12.07
2023-03-06T21:03:51.070Z,11.17
2023-03-06T21:06:18.046Z,11.80
2023-03-06T21:08:44.669Z,11.03
2023-03-06T21:11:11.288Z,11.07
2023-03-06T21:13:37.923Z,12.50
2023-03-06T21:16:10.217Z,11.50
2023-03-06T21:18:36.571Z,11.47
2023-03-06T21:21:07.513Z,11.17
2023-03-06T21:23:33.840Z,10.87
2023-03-06T21:26:00.185Z,11.90
2023-03-06T21:28:26.865Z,12.40
2023-03-06T21:30:53.363Z,11.33
2023-03-06T21:33:19.709Z,11.83
2023-03-06T21:35:46.876Z,11.40
2023-03-06T21:38:14.035Z,11.27
2023-03-06T21:40:40.995Z,12.10
2023-03-06T21:43:07.332Z,11.60
2023-03-06T21:45:33.680Z,12.07
2023-03-06T21:48:00.655Z,12.43
2023-03-06T21:50:27.597Z,12.30
2023-03-06T21:52:56.133Z,12.50
2023-03-06T21:55:22.907Z,12.57
2023-03-06T21:57:50.856Z,12.43
2023-03-06T22:00:19.282Z,12.20
2023-03-06T22:02:46.652Z,12.50
2023-03-06T22:05:13.487Z,13.17
2023-03-06T22:07:39.892Z,11.40
2023-03-06T22:10:09.254Z,11.67
2023-03-06T22:12:36.308Z,13.30
2023-03-06T22:15:02.685Z,11.37
2023-03-06T22:17:30.378Z,13.00
2023-03-06T22:19:56.756Z,12.50
2023-03-06T22:22:23.379Z,12.20
2023-03-06T22:24:49.722Z,12.70
2023-03-06T22:27:16.645Z,11.40
2023-03-06T22:29:43.235Z,11.90
2023-03-06T22:32:09.676Z,11.13
2023-03-06T22:34:36.096Z,12.13
2023-03-06T22:37:02.438Z,11.30
2023-03-06T22:39:28.769Z,11.40
2023-03-06T22:41:55.727Z,11.47
2023-03-06T22:44:22.484Z,12.50
2023-03-06T22:46:48.872Z,11.03
2023-03-06T22:49:16.724Z,12.43
2023-03-06T22:51:43.516Z,11.90
2023-03-06T22:54:10.066Z,11.30
2023-03-06T22:56:36.631Z,11.47
2023-03-06T22:59:04.251Z,10.40
2023-03-06T23:01:33.291Z,12.60
2023-03-06T23:04:02.207Z,11.97
2023-03-06T23:06:33.968Z,10.77
2023-03-06T23:09:04.176Z,12.83
2023-03-06T23:11:31.461Z,10.97
2023-03-06T23:13:58.263Z,11.77
2023-03-06T23:16:25.064Z,11.90
2023-03-06T23:18:52.982Z,11.47
2023-03-06T23:21:22.095Z,10.97
2023-03-06T23:23:50.715Z,12.27
2023-03-06T23:26:18.910Z,10.97
2023-03-06T23:28:45.372Z,11.43
2023-03-06T23:31:15.887Z,12.07
2023-03-06T23:33:42.439Z,12.57
2023-03-06T23:36:13.875Z,12.57
2023-03-06T23:38:40.904Z,12.53
2023-03-06T23:41:12.720Z,12.23
2023-03-06T23:43:39.677Z,12.60
2023-03-06T23:46:07.128Z,12.03
2023-03-06T23:48:35.323Z,11.77
2023-03-06T23:51:08.478Z,12.90
2023-03-06T23:53:35.321Z,11.60
2023-03-06T23:56:07.472Z,13.50
2023-03-06T23:58:34.181Z,12.87
